sensor_id;sensor_type;location;lat;lon;timestamp;pressure;altitude;pressure_sealevel;temperature;humidity
21129;BME280;10722;51.910;8.352;2023-03-11T00:02:20;99536.50;;;0.10;100.00
21129;BME280;10722;51.910;8.352;2023-03-11T00:05:07;99542.84;;;0.20;100.00
21129;BME280;10722;51.910;8.352;2023-03-11T00:07:53;99550.72;;;0.26;100.00
21129;BME280;10722;51.910;8.352;2023-03-11T00:10:41;99563.56;;;0.29;100.00
21129;BME280;10722;51.910;8.352;2023-03-11T00:13:28;99554.50;;;0.15;100.00
21129;BME280;10722;51.910;8.352;2023-03-11T00:16:13;99553.94;;;0.22;100.00
21129;BME280;10722;51.910;8.352;2023-03-11T00:18:58;99564.97;;;0.22;100.00
21129;BME280;10722;51.910;8.352;2023-03-11T00:21:44;99568.22;;;0.18;100.00
21129;BME280;10722;51.910;8.352;2023-03-11T00:24:29;99571.56;;;0.17;100.00
21129;BME280;10722;51.910;8.352;2023-03-11T00:27:14;99574.72;;;0.12;100.00
21129;BME280;10722;51.910;8.352;2023-03-11T00:30:00;99580.59;;;0.11;100.00
21129;BME280;10722;51.910;8.352;2023-03-11T00:32:56;99585.53;;;0.06;100.00
21129;BME280;10722;51.910;8.352;2023-03-11T00:35:42;99593.41;;;0.12;100.00
21129;BME280;10722;51.910;8.352;2023-03-11T00:38:27;99603.75;;;0.17;100.00
21129;BME280;10722;51.910;8.352;2023-03-11T00:41:13;99612.19;;;0.16;100.00
21129;BME280;10722;51.910;8.352;2023-03-11T00:43:59;99616.91;;;0.07;100.00
21129;BME280;10722;51.910;8.352;2023-03-11T00:46:44;99619.16;;;0.20;100.00
21129;BME280;10722;51.910;8.352;2023-03-11T00:49:30;99628.31;;;0.16;100.00
21129;BME280;10722;51.910;8.352;2023-03-11T00:52:15;99631.91;;;0.21;100.00
21129;BME280;10722;51.910;8.352;2023-03-11T00:55:00;99635.56;;;0.28;100.00
21129;BME280;10722;51.910;8.352;2023-03-11T00:57:46;99645.72;;;0.27;100.00
21129;BME280;10722;51.910;8.352;2023-03-11T01:00:31;99638.38;;;0.13;100.00
21129;BME280;10722;51.910;8.352;2023-03-11T01:03:17;99649.00;;;0.24;100.00
21129;BME280;10722;51.910;8.352;2023-03-11T01:06:02;99660.97;;;0.27;100.00
21129;BME280;10722;51.910;8.352;2023-03-11T01:08:49;99666.19;;;0.30;100.00
21129;BME280;10722;51.910;8.352;2023-03-11T01:11:35;99668.81;;;0.31;100.00
21129;BME280;10722;51.910;8.352;2023-03-11T01:14:20;99679.88;;;0.33;100.00
21129;BME280;10722;51.910;8.352;2023-03-11T01:17:06;99684.44;;;0.40;100.00
21129;BME280;10722;51.910;8.352;2023-03-11T01:19:51;99688.66;;;0.40;100.00
21129;BME280;10722;51.910;8.352;2023-03-11T01:22:36;99684.50;;;0.42;100.00
21129;BME280;10722;51.910;8.352;2023-03-11T01:25:23;99686.25;;;0.43;100.00
21129;BME280;10722;51.910;8.352;2023-03-11T01:28:08;99693.22;;;0.28;100.00
21129;BME280;10722;51.910;8.352;2023-03-11T01:30:54;99700.00;;;0.27;100.00
21129;BME280;10722;51.910;8.352;2023-03-11T01:33:39;99704.13;;;0.25;100.00
21129;BME280;10722;51.910;8.352;2023-03-11T01:36:25;99708.69;;;0.32;100.00
21129;BME280;10722;51.910;8.352;2023-03-11T01:39:10;99708.81;;;0.35;100.00
21129;BME280;10722;51.910;8.352;2023-03-11T01:41:56;99705.16;;;0.29;100.00
21129;BME280;10722;51.910;8.352;2023-03-11T01:44:41;99715.47;;;0.32;100.00
21129;BME280;10722;51.910;8.352;2023-03-11T01:47:36;99712.84;;;0.30;100.00
21129;BME280;10722;51.910;8.352;2023-03-11T01:50:22;99708.31;;;0.23;100.00
21129;BME280;10722;51.910;8.352;2023-03-11T01:53:08;99721.28;;;0.29;100.00
21129;BME280;10722;51.910;8.352;2023-03-11T01:55:54;99723.84;;;0.29;100.00
21129;BME280;10722;51.910;8.352;2023-03-11T01:58:42;99713.72;;;0.11;100.00
21129;BME280;10722;51.910;8.352;2023-03-11T02:01:28;99729.41;;;0.20;100.00
21129;BME280;10722;51.910;8.352;2023-03-11T02:04:14;99726.16;;;0.25;100.00
21129;BME280;10722;51.910;8.352;2023-03-11T02:07:00;99739.88;;;0.28;100.00
21129;BME280;10722;51.910;8.352;2023-03-11T02:09:46;99738.41;;;0.33;100.00
21129;BME280;10722;51.910;8.352;2023-03-11T02:12:34;99734.63;;;0.24;100.00
21129;BME280;10722;51.910;8.352;2023-03-11T02:15:20;99732.34;;;0.30;100.00
21129;BME280;10722;51.910;8.352;2023-03-11T02:18:06;99734.78;;;0.28;100.00
21129;BME280;10722;51.910;8.352;2023-03-11T02:27:20;99742.50;;;0.30;100.00
21129;BME280;10722;51.910;8.352;2023-03-11T02:30:08;99745.25;;;0.34;100.00
21129;BME280;10722;51.910;8.352;2023-03-11T02:32:54;99746.84;;;0.32;100.00
21129;BME280;10722;51.910;8.352;2023-03-11T02:35:40;99749.31;;;0.31;100.00
21129;BME280;10722;51.910;8.352;2023-03-11T02:38:25;99748.47;;;0.30;100.00
21129;BME280;10722;51.910;8.352;2023-03-11T02:41:10;99755.16;;;0.28;100.00
21129;BME280;10722;51.910;8.352;2023-03-11T02:43:56;99754.16;;;0.25;100.00
21129;BME280;10722;51.910;8.352;2023-03-11T02:46:43;99747.59;;;0.10;100.00
21129;BME280;10722;51.910;8.352;2023-03-11T02:49:30;99762.47;;;0.20;100.00
21129;BME280;10722;51.910;8.352;2023-03-11T02:52:16;99755.16;;;0.28;100.00
21129;BME280;10722;51.910;8.352;2023-03-11T02:55:02;99752.47;;;0.25;100.00
21129;BME280;10722;51.910;8.352;2023-03-11T02:57:49;99763.69;;;0.29;100.00
21129;BME280;10722;51.910;8.352;2023-03-11T03:00:34;99774.84;;;0.32;100.00
21129;BME280;10722;51.910;8.352;2023-03-11T03:03:19;99778.94;;;0.29;100.00
21129;BME280;10722;51.910;8.352;2023-03-11T03:06:05;99772.31;;;0.32;100.00
21129;BME280;10722;51.910;8.352;2023-03-11T03:08:50;99781.66;;;0.33;100.00
21129;BME280;10722;51.910;8.352;2023-03-11T03:11:36;99778.22;;;0.31;100.00
21129;BME280;10722;51.910;8.352;2023-03-11T03:14:21;99781.53;;;0.30;100.00
21129;BME280;10722;51.910;8.352;2023-03-11T03:17:06;99786.50;;;0.27;100.00
21129;BME280;10722;51.910;8.352;2023-03-11T03:19:54;99791.66;;;0.29;100.00
21129;BME280;10722;51.910;8.352;2023-03-11T03:22:40;99803.66;;;0.31;100.00
21129;BME280;10722;51.910;8.352;2023-03-11T03:25:26;99807.66;;;0.26;100.00
21129;BME280;10722;51.910;8.352;2023-03-11T03:28:12;99811.44;;;0.16;100.00
21129;BME280;10722;51.910;8.352;2023-03-11T03:31:05;99810.13;;;0.25;100.00
21129;BME280;10722;51.910;8.352;2023-03-11T03:33:51;99811.28;;;0.12;100.00
21129;BME280;10722;51.910;8.352;2023-03-11T03:36:36;99822.19;;;0.09;100.00
21129;BME280;10722;51.910;8.352;2023-03-11T03:39:25;99824.13;;;0.15;100.00
21129;BME280;10722;51.910;8.352;2023-03-11T03:42:13;99830.44;;;0.05;100.00
21129;BME280;10722;51.910;8.352;2023-03-11T03:44:58;99830.06;;;0.15;100.00
21129;BME280;10722;51.910;8.352;2023-03-11T03:47:44;99837.22;;;0.05;100.00
21129;BME280;10722;51.910;8.352;2023-03-11T03:50:32;99850.56;;;0.18;100.00
21129;BME280;10722;51.910;8.352;2023-03-11T03:53:21;99851.50;;;0.20;100.00
21129;BME280;10722;51.910;8.352;2023-03-11T03:56:17;99860.13;;;0.24;100.00
21129;BME280;10722;51.910;8.352;2023-03-11T03:59:03;99851.63;;;0.24;100.00
21129;BME280;10722;51.910;8.352;2023-03-11T04:01:48;99864.34;;;0.24;100.00
21129;BME280;10722;51.910;8.352;2023-03-11T04:04:33;99870.41;;;0.26;100.00
21129;BME280;10722;51.910;8.352;2023-03-11T04:07:18;99863.72;;;0.10;100.00
21129;BME280;10722;51.910;8.352;2023-03-11T04:10:04;99869.22;;;0.19;100.00
21129;BME280;10722;51.910;8.352;2023-03-11T04:12:49;99873.22;;;0.14;100.00
21129;BME280;10722;51.910;8.352;2023-03-11T04:15:37;99870.81;;;-0.03;100.00
21129;BME280;10722;51.910;8.352;2023-03-11T04:18:23;99874.09;;;-0.05;100.00
21129;BME280;10722;51.910;8.352;2023-03-11T04:21:08;99881.50;;;-0.10;100.00
21129;BME280;10722;51.910;8.352;2023-03-11T04:23:54;99883.88;;;-0.13;100.00
21129;BME280;10722;51.910;8.352;2023-03-11T04:26:39;99890.13;;;-0.06;100.00
21129;BME280;10722;51.910;8.352;2023-03-11T04:29:25;99893.47;;;-0.07;100.00
21129;BME280;10722;51.910;8.352;2023-03-11T04:32:10;99899.00;;;-0.16;100.00
21129;BME280;10722;51.910;8.352;2023-03-11T04:34:55;99907.78;;;-0.09;100.00
21129;BME280;10722;51.910;8.352;2023-03-11T04:37:41;99913.16;;;-0.03;100.00
21129;BME280;10722;51.910;8.352;2023-03-11T04:40:26;99914.97;;;-0.01;100.00
21129;BME280;10722;51.910;8.352;2023-03-11T04:43:11;99913.50;;;0.05;100.00
21129;BME280;10722;51.910;8.352;2023-03-11T04:45:57;99909.22;;;-0.14;100.00
21129;BME280;10722;51.910;8.352;2023-03-11T04:48:42;99917.16;;;-0.08;100.00
21129;BME280;10722;51.910;8.352;2023-03-11T04:51:27;99926.44;;;-0.09;100.00
21129;BME280;10722;51.910;8.352;2023-03-11T04:54:13;99931.09;;;-0.18;100.00
21129;BME280;10722;51.910;8.352;2023-03-11T04:56:58;99936.31;;;-0.15;100.00
21129;BME280;10722;51.910;8.352;2023-03-11T04:59:44;99936.78;;;-0.06;100.00
21129;BME280;10722;51.910;8.352;2023-03-11T05:02:28;99938.56;;;-0.03;100.00
21129;BME280;10722;51.910;8.352;2023-03-11T05:05:14;99938.53;;;-0.05;100.00
21129;BME280;10722;51.910;8.352;2023-03-11T05:07:59;99937.22;;;0.04;100.00
21129;BME280;10722;51.910;8.352;2023-03-11T05:10:45;99941.63;;;0.08;100.00
21129;BME280;10722;51.910;8.352;2023-03-11T05:13:30;99938.06;;;0.04;100.00
21129;BME280;10722;51.910;8.352;2023-03-11T05:16:15;99934.00;;;0.08;100.00
21129;BME280;10722;51.910;8.352;2023-03-11T05:19:01;99933.22;;;0.09;100.00
21129;BME280;10722;51.910;8.352;2023-03-11T05:21:46;99932.84;;;0.01;100.00
21129;BME280;10722;51.910;8.352;2023-03-11T05:24:32;99934.00;;;0.08;100.00
21129;BME280;10722;51.910;8.352;2023-03-11T05:27:17;99940.47;;;0.01;100.00
21129;BME280;10722;51.910;8.352;2023-03-11T05:30:03;99934.72;;;0.05;100.00
21129;BME280;10722;51.910;8.352;2023-03-11T05:32:49;99936.78;;;0.12;100.00
21129;BME280;10722;51.910;8.352;2023-03-11T05:35:34;99939.91;;;0.07;100.00
21129;BME280;10722;51.910;8.352;2023-03-11T05:38:19;99947.53;;;0.07;100.00
21129;BME280;10722;51.910;8.352;2023-03-11T05:41:05;99940.91;;;0.10;100.00
21129;BME280;10722;51.910;8.352;2023-03-11T05:43:50;99942.59;;;-0.08;100.00
21129;BME280;10722;51.910;8.352;2023-03-11T05:46:36;99945.19;;;-0.07;100.00
21129;BME280;10722;51.910;8.352;2023-03-11T05:49:21;99953.47;;;0.07;100.00
21129;BME280;10722;51.910;8.352;2023-03-11T05:52:07;99952.09;;;-0.04;100.00
21129;BME280;10722;51.910;8.352;2023-03-11T05:54:52;99945.91;;;-0.09;100.00
21129;BME280;10722;51.910;8.352;2023-03-11T05:57:38;99952.19;;;-0.03;100.00
21129;BME280;10722;51.910;8.352;2023-03-11T06:00:23;99950.13;;;-0.10;100.00
21129;BME280;10722;51.910;8.352;2023-03-11T06:03:09;99961.75;;;-0.15;100.00
21129;BME280;10722;51.910;8.352;2023-03-11T06:05:54;99960.41;;;-0.08;100.00
21129;BME280;10722;51.910;8.352;2023-03-11T06:08:40;99957.69;;;-0.29;100.00
21129;BME280;10722;51.910;8.352;2023-03-11T06:11:25;99961.31;;;-0.24;100.00
21129;BME280;10722;51.910;8.352;2023-03-11T06:14:13;99967.34;;;-0.22;100.00
21129;BME280;10722;51.910;8.352;2023-03-11T06:16:58;99963.94;;;-0.57;100.00
21129;BME280;10722;51.910;8.352;2023-03-11T06:19:43;99977.75;;;-0.52;100.00
21129;BME280;10722;51.910;8.352;2023-03-11T06:22:28;99973.22;;;-0.41;100.00
21129;BME280;10722;51.910;8.352;2023-03-11T06:25:13;99990.72;;;-0.29;100.00
21129;BME280;10722;51.910;8.352;2023-03-11T06:27:59;99987.41;;;-0.28;100.00
21129;BME280;10722;51.910;8.352;2023-03-11T06:30:44;99999.31;;;-0.09;100.00
21129;BME280;10722;51.910;8.352;2023-03-11T06:33:29;99987.31;;;-0.30;100.00
21129;BME280;10722;51.910;8.352;2023-03-11T06:36:16;99999.41;;;-0.08;100.00
21129;BME280;10722;51.910;8.352;2023-03-11T06:39:02;99994.75;;;0.02;100.00
21129;BME280;10722;51.910;8.352;2023-03-11T06:41:47;100000.28;;;0.11;100.00
21129;BME280;10722;51.910;8.352;2023-03-11T06:44:33;100002.94;;;0.14;100.00
21129;BME280;10722;51.910;8.352;2023-03-11T06:47:18;99999.16;;;0.06;100.00
21129;BME280;10722;51.910;8.352;2023-03-11T06:50:04;100001.81;;;-0.11;100.00
21129;BME280;10722;51.910;8.352;2023-03-11T06:52:49;100006.59;;;0.01;100.00
21129;BME280;10722;51.910;8.352;2023-03-11T06:55:34;100012.34;;;0.15;100.00
21129;BME280;10722;51.910;8.352;2023-03-11T06:58:20;100015.53;;;0.11;100.00
21129;BME280;10722;51.910;8.352;2023-03-11T07:01:16;100024.25;;;0.16;100.00
21129;BME280;10722;51.910;8.352;2023-03-11T07:04:01;100030.78;;;0.11;100.00
21129;BME280;10722;51.910;8.352;2023-03-11T07:06:47;100037.06;;;0.17;100.00
21129;BME280;10722;51.910;8.352;2023-03-11T07:09:32;100036.34;;;0.20;100.00
21129;BME280;10722;51.910;8.352;2023-03-11T07:12:18;100039.94;;;0.25;100.00
21129;BME280;10722;51.910;8.352;2023-03-11T07:15:03;100050.00;;;0.40;100.00
21129;BME280;10722;51.910;8.352;2023-03-11T07:17:49;100038.88;;;0.20;100.00
21129;BME280;10722;51.910;8.352;2023-03-11T07:20:34;100045.19;;;0.28;100.00
21129;BME280;10722;51.910;8.352;2023-03-11T07:23:20;100044.03;;;0.21;100.00
21129;BME280;10722;51.910;8.352;2023-03-11T07:26:09;100052.41;;;0.55;100.00
21129;BME280;10722;51.910;8.352;2023-03-11T07:28:55;100056.63;;;0.92;100.00
21129;BME280;10722;51.910;8.352;2023-03-11T07:31:41;100060.28;;;1.16;100.00
21129;BME280;10722;51.910;8.352;2023-03-11T07:34:26;100050.63;;;1.28;100.00
21129;BME280;10722;51.910;8.352;2023-03-11T07:37:12;100052.44;;;1.31;100.00
21129;BME280;10722;51.910;8.352;2023-03-11T07:39:58;100042.56;;;1.58;100.00
21129;BME280;10722;51.910;8.352;2023-03-11T07:42:43;100027.94;;;1.54;100.00
21129;BME280;10722;51.910;8.352;2023-03-11T07:45:28;100033.44;;;1.84;100.00
21129;BME280;10722;51.910;8.352;2023-03-11T07:48:14;100024.41;;;2.13;100.00
21129;BME280;10722;51.910;8.352;2023-03-11T07:51:03;99981.44;;;2.01;100.00
21129;BME280;10722;51.910;8.352;2023-03-11T07:53:51;99975.44;;;2.44;99.67
21129;BME280;10722;51.910;8.352;2023-03-11T07:56:37;99956.03;;;2.72;98.04
21129;BME280;10722;51.910;8.352;2023-03-11T07:59:23;99939.31;;;3.04;96.03
21129;BME280;10722;51.910;8.352;2023-03-11T08:02:09;99885.00;;;2.86;93.12
21129;BME280;10722;51.910;8.352;2023-03-11T08:04:55;99878.88;;;3.32;92.12
21129;BME280;10722;51.910;8.352;2023-03-11T08:07:40;99853.13;;;3.00;91.49
21129;BME280;10722;51.910;8.352;2023-03-11T08:10:25;99872.31;;;3.66;91.06
21129;BME280;10722;51.910;8.352;2023-03-11T08:13:10;99848.44;;;4.53;88.65
21129;BME280;10722;51.910;8.352;2023-03-11T08:15:55;99802.63;;;4.32;86.50
21129;BME280;10722;51.910;8.352;2023-03-11T08:18:41;99751.16;;;4.22;84.47
21129;BME280;10722;51.910;8.352;2023-03-11T08:21:28;99742.53;;;4.51;83.52
21129;BME280;10722;51.910;8.352;2023-03-11T08:24:14;99714.34;;;4.19;82.35
21129;BME280;10722;51.910;8.352;2023-03-11T08:26:59;99718.03;;;4.29;82.20
21129;BME280;10722;51.910;8.352;2023-03-11T08:29:45;99685.69;;;4.32;80.97
21129;BME280;10722;51.910;8.352;2023-03-11T08:32:31;99677.09;;;4.30;80.16
21129;BME280;10722;51.910;8.352;2023-03-11T08:35:16;99660.16;;;4.02;79.32
21129;BME280;10722;51.910;8.352;2023-03-11T08:38:02;99721.97;;;4.82;79.72
21129;BME280;10722;51.910;8.352;2023-03-11T08:40:47;99696.28;;;5.15;78.28
21129;BME280;10722;51.910;8.352;2023-03-11T08:43:33;99663.34;;;4.26;78.44
21129;BME280;10722;51.910;8.352;2023-03-11T08:46:41;99730.06;;;4.64;78.96
21129;BME280;10722;51.910;8.352;2023-03-11T08:49:26;99708.91;;;5.08;77.47
21129;BME280;10722;51.910;8.352;2023-03-11T08:52:12;99673.63;;;4.61;76.58
21129;BME280;10722;51.910;8.352;2023-03-11T08:54:57;99689.09;;;4.31;77.14
21129;BME280;10722;51.910;8.352;2023-03-11T08:57:43;99752.81;;;4.85;77.55
21129;BME280;10722;51.910;8.352;2023-03-11T09:00:28;99710.22;;;4.92;76.18
21129;BME280;10722;51.910;8.352;2023-03-11T09:03:16;99713.13;;;4.04;77.23
21129;BME280;10722;51.910;8.352;2023-03-11T09:06:04;99796.63;;;4.01;78.67
21129;BME280;10722;51.910;8.352;2023-03-11T09:08:50;99774.22;;;3.64;78.55
21129;BME280;10722;51.910;8.352;2023-03-11T09:11:36;99826.81;;;4.13;78.80
21129;BME280;10722;51.910;8.352;2023-03-11T09:14:21;99844.19;;;4.23;78.92
21129;BME280;10722;51.910;8.352;2023-03-11T09:17:07;99856.22;;;4.87;78.52
21129;BME280;10722;51.910;8.352;2023-03-11T09:19:52;99760.25;;;4.76;76.79
21129;BME280;10722;51.910;8.352;2023-03-11T09:22:37;99767.47;;;4.58;76.87
21129;BME280;10722;51.910;8.352;2023-03-11T09:25:23;99773.72;;;5.02;76.20
21129;BME280;10722;51.910;8.352;2023-03-11T09:28:08;99773.44;;;5.26;75.54
21129;BME280;10722;51.910;8.352;2023-03-11T09:30:54;99726.38;;;4.88;74.90
21129;BME280;10722;51.910;8.352;2023-03-11T09:33:41;99743.59;;;4.93;75.51
21129;BME280;10722;51.910;8.352;2023-03-11T09:36:26;99734.09;;;5.24;74.49
21129;BME280;10722;51.910;8.352;2023-03-11T09:39:13;99664.78;;;4.50;73.80
21129;BME280;10722;51.910;8.352;2023-03-11T09:42:19;99736.59;;;4.20;75.67
21129;BME280;10722;51.910;8.352;2023-03-11T09:45:16;99830.03;;;4.66;77.36
21129;BME280;10722;51.910;8.352;2023-03-11T09:51:12;99773.03;;;4.75;75.32
21129;BME280;10722;51.910;8.352;2023-03-11T09:54:03;99807.06;;;5.04;75.70
21129;BME280;10722;51.910;8.352;2023-03-11T09:56:49;99771.47;;;4.81;75.04
21129;BME280;10722;51.910;8.352;2023-03-11T09:59:35;99773.13;;;4.14;75.57
21129;BME280;10722;51.910;8.352;2023-03-11T10:02:23;99765.16;;;4.35;74.51
21129;BME280;10722;51.910;8.352;2023-03-11T10:05:15;99807.59;;;4.57;75.64
21129;BME280;10722;51.910;8.352;2023-03-11T10:08:30;99822.00;;;5.19;74.85
21129;BME280;10722;51.910;8.352;2023-03-11T10:11:40;99797.75;;;5.42;74.34
21129;BME280;10722;51.910;8.352;2023-03-11T10:14:40;99711.94;;;5.29;71.79
21129;BME280;10722;51.910;8.352;2023-03-11T10:17:52;99711.88;;;4.88;72.50
21129;BME280;10722;51.910;8.352;2023-03-11T10:20:47;99781.22;;;5.67;72.61
21129;BME280;10722;51.910;8.352;2023-03-11T10:26:46;99722.66;;;6.33;70.08
21129;BME280;10722;51.910;8.352;2023-03-11T10:29:47;99721.75;;;6.78;69.32
21129;BME280;10722;51.910;8.352;2023-03-11T10:32:41;99551.34;;;6.28;65.59
21129;BME280;10722;51.910;8.352;2023-03-11T10:35:45;99613.00;;;6.28;66.29
21129;BME280;10722;51.910;8.352;2023-03-11T10:38:36;99619.13;;;6.37;66.12
21129;BME280;10722;51.910;8.352;2023-03-11T10:41:43;99591.75;;;5.45;66.83
21129;BME280;10722;51.910;8.352;2023-03-11T10:44:38;99754.84;;;5.74;69.49
21129;BME280;10722;51.910;8.352;2023-03-11T10:47:24;99770.78;;;6.40;69.04
21129;BME280;10722;51.910;8.352;2023-03-11T10:50:15;99779.28;;;6.39;68.99
21129;BME280;10722;51.910;8.352;2023-03-11T10:53:11;99767.09;;;5.47;69.84
21129;BME280;10722;51.910;8.352;2023-03-11T10:55:58;99753.41;;;5.87;68.87
21129;BME280;10722;51.910;8.352;2023-03-11T10:58:48;99757.69;;;6.73;67.20
21129;BME280;10722;51.910;8.352;2023-03-11T11:01:33;99710.47;;;6.68;66.46
21129;BME280;10722;51.910;8.352;2023-03-11T11:04:33;99672.09;;;6.30;65.61
21129;BME280;10722;51.910;8.352;2023-03-11T11:07:20;99682.47;;;6.36;65.44
21129;BME280;10722;51.910;8.352;2023-03-11T11:13:17;99688.09;;;6.15;64.68
21129;BME280;10722;51.910;8.352;2023-03-11T11:16:23;99681.47;;;5.84;64.43
21129;BME280;10722;51.910;8.352;2023-03-11T11:19:12;99722.50;;;5.81;65.22
21129;BME280;10722;51.910;8.352;2023-03-11T11:22:03;99698.75;;;5.52;64.66
21129;BME280;10722;51.910;8.352;2023-03-11T11:24:50;99704.13;;;5.23;64.48
21129;BME280;10722;51.910;8.352;2023-03-11T11:27:36;99815.94;;;5.89;66.41
21129;BME280;10722;51.910;8.352;2023-03-11T11:30:22;99788.06;;;5.67;65.53
21129;BME280;10722;51.910;8.352;2023-03-11T11:33:53;99782.50;;;5.12;66.53
21129;BME280;10722;51.910;8.352;2023-03-11T11:36:39;99856.78;;;5.80;66.67
21129;BME280;10722;51.910;8.352;2023-03-11T11:39:29;99904.72;;;7.01;66.78
21129;BME280;10722;51.910;8.352;2023-03-11T11:42:14;99823.38;;;7.06;64.71
21129;BME280;10722;51.910;8.352;2023-03-11T11:45:11;99852.53;;;7.59;64.99
21129;BME280;10722;51.910;8.352;2023-03-11T11:47:59;99850.66;;;8.07;64.29
21129;BME280;10722;51.910;8.352;2023-03-11T11:50:52;99799.38;;;8.27;62.53
21129;BME280;10722;51.910;8.352;2023-03-11T11:53:43;99784.81;;;8.30;61.99
21129;BME280;10722;51.910;8.352;2023-03-11T11:56:30;99644.53;;;8.01;58.79
21129;BME280;10722;51.910;8.352;2023-03-11T11:59:18;99622.66;;;7.63;58.52
21129;BME280;10722;51.910;8.352;2023-03-11T12:05:24;99607.50;;;7.90;56.84
21129;BME280;10722;51.910;8.352;2023-03-11T12:08:19;99625.38;;;8.63;55.62
21129;BME280;10722;51.910;8.352;2023-03-11T12:11:25;99613.28;;;8.59;55.16
21129;BME280;10722;51.910;8.352;2023-03-11T12:17:03;99693.84;;;8.38;56.85
21129;BME280;10722;51.910;8.352;2023-03-11T12:19:53;99705.06;;;7.68;57.85
21129;BME280;10722;51.910;8.352;2023-03-11T12:26:10;99694.31;;;6.78;58.70
21129;BME280;10722;51.910;8.352;2023-03-11T12:29:07;99717.38;;;6.72;58.58
21129;BME280;10722;51.910;8.352;2023-03-11T12:32:00;99708.69;;;6.18;59.60
21129;BME280;10722;51.910;8.352;2023-03-11T12:34:46;99774.72;;;5.45;61.91
21129;BME280;10722;51.910;8.352;2023-03-11T12:37:33;99859.00;;;6.42;61.95
21129;BME280;10722;51.910;8.352;2023-03-11T12:47:23;99752.16;;;7.02;58.45
21129;BME280;10722;51.910;8.352;2023-03-11T12:53:15;99820.88;;;7.63;58.81
21129;BME280;10722;51.910;8.352;2023-03-11T13:08:50;99702.56;;;8.47;54.50
21129;BME280;10722;51.910;8.352;2023-03-11T13:11:42;99714.94;;;8.82;54.27
21129;BME280;10722;51.910;8.352;2023-03-11T13:14:32;99698.06;;;9.30;53.06
21129;BME280;10722;51.910;8.352;2023-03-11T13:17:25;99751.53;;;9.51;53.62
21129;BME280;10722;51.910;8.352;2023-03-11T13:23:29;99648.50;;;10.11;49.57
21129;BME280;10722;51.910;8.352;2023-03-11T13:41:49;99848.41;;;9.05;54.25
21129;BME280;10722;51.910;8.352;2023-03-11T13:44:36;99815.81;;;9.17;53.56
21129;BME280;10722;51.910;8.352;2023-03-11T13:47:25;99757.84;;;8.77;52.88
21129;BME280;10722;51.910;8.352;2023-03-11T13:56:28;99828.41;;;9.89;52.65
21129;BME280;10722;51.910;8.352;2023-03-11T13:59:54;99710.38;;;8.55;51.68
21129;BME280;10722;51.910;8.352;2023-03-11T14:03:20;99726.84;;;7.93;52.78
21129;BME280;10722;51.910;8.352;2023-03-11T14:06:16;99670.13;;;7.20;52.18
21129;BME280;10722;51.910;8.352;2023-03-11T14:09:04;99648.88;;;6.76;52.40
21129;BME280;10722;51.910;8.352;2023-03-11T14:11:53;99723.81;;;6.48;54.53
21129;BME280;10722;51.910;8.352;2023-03-11T14:14:52;99884.81;;;7.92;56.01
21129;BME280;10722;51.910;8.352;2023-03-11T14:17:40;99759.28;;;7.18;53.93
21129;BME280;10722;51.910;8.352;2023-03-11T14:20:25;99753.09;;;6.58;55.26
21129;BME280;10722;51.910;8.352;2023-03-11T14:23:17;99797.09;;;6.73;55.63
21129;BME280;10722;51.910;8.352;2023-03-11T14:26:10;99795.78;;;6.97;54.82
21129;BME280;10722;51.910;8.352;2023-03-11T14:29:01;99783.19;;;6.62;55.21
21129;BME280;10722;51.910;8.352;2023-03-11T14:31:51;99758.78;;;6.87;53.57
21129;BME280;10722;51.910;8.352;2023-03-11T14:34:39;99760.41;;;7.35;52.61
21129;BME280;10722;51.910;8.352;2023-03-11T14:37:30;99762.97;;;7.99;51.99
21129;BME280;10722;51.910;8.352;2023-03-11T14:40:27;99710.00;;;7.51;51.46
21129;BME280;10722;51.910;8.352;2023-03-11T14:43:13;99728.03;;;6.93;52.89
21129;BME280;10722;51.910;8.352;2023-03-11T14:46:09;99736.22;;;6.71;53.20
21129;BME280;10722;51.910;8.352;2023-03-11T14:49:19;99820.91;;;7.67;53.74
21129;BME280;10722;51.910;8.352;2023-03-11T14:52:10;99701.41;;;7.49;50.67
21129;BME280;10722;51.910;8.352;2023-03-11T14:55:01;99746.03;;;8.18;50.24
21129;BME280;10722;51.910;8.352;2023-03-11T14:58:02;99722.38;;;7.78;51.09
21129;BME280;10722;51.910;8.352;2023-03-11T15:00:57;99749.00;;;6.68;53.48
21129;BME280;10722;51.910;8.352;2023-03-11T15:03:48;99818.44;;;7.19;54.33
21129;BME280;10722;51.910;8.352;2023-03-11T15:06:38;99824.81;;;7.41;54.37
21129;BME280;10722;51.910;8.352;2023-03-11T15:09:25;99794.06;;;7.49;53.42
21129;BME280;10722;51.910;8.352;2023-03-11T15:12:33;99769.00;;;6.39;54.54
21129;BME280;10722;51.910;8.352;2023-03-11T15:15:27;99778.16;;;5.83;55.79
21129;BME280;10722;51.910;8.352;2023-03-11T15:18:22;99823.06;;;6.01;56.41
21129;BME280;10722;51.910;8.352;2023-03-11T15:21:20;99824.31;;;6.20;56.60
21129;BME280;10722;51.910;8.352;2023-03-11T15:24:17;99836.75;;;6.00;57.23
21129;BME280;10722;51.910;8.352;2023-03-11T15:27:07;99859.50;;;6.66;56.31
21129;BME280;10722;51.910;8.352;2023-03-11T15:33:19;99771.19;;;5.04;57.09
21129;BME280;10722;51.910;8.352;2023-03-11T15:36:05;99815.63;;;5.77;56.18
21129;BME280;10722;51.910;8.352;2023-03-11T15:42:10;99761.75;;;5.03;56.07
21129;BME280;10722;51.910;8.352;2023-03-11T15:47:46;99866.88;;;5.37;58.06
21129;BME280;10722;51.910;8.352;2023-03-11T15:50:31;99883.22;;;6.12;57.42
21129;BME280;10722;51.910;8.352;2023-03-11T15:53:36;99869.59;;;7.01;55.51
21129;BME280;10722;51.910;8.352;2023-03-11T15:56:23;99820.19;;;6.72;54.73
21129;BME280;10722;51.910;8.352;2023-03-11T15:59:18;99851.13;;;7.25;54.50
21129;BME280;10722;51.910;8.352;2023-03-11T16:02:24;99857.47;;;8.00;53.98
21129;BME280;10722;51.910;8.352;2023-03-11T16:05:19;99724.94;;;6.64;52.89
21129;BME280;10722;51.910;8.352;2023-03-11T16:08:04;99765.84;;;6.52;54.16
21129;BME280;10722;51.910;8.352;2023-03-11T16:10:49;99786.94;;;6.81;53.81
21129;BME280;10722;51.910;8.352;2023-03-11T16:13:35;99800.63;;;6.79;54.29
21129;BME280;10722;51.910;8.352;2023-03-11T16:16:20;99786.59;;;7.11;53.50
21129;BME280;10722;51.910;8.352;2023-03-11T16:19:06;99763.66;;;7.24;52.63